Time;durP1;ratioP1;P1;durP2;ratioP2;P2;SDS_P1;SDS_P2;PMS_P1;PMS_P2;Temp;Humidity;BMP_temperature;BMP_pressure;BME280_temperature;BME280_humidity;BME280_pressure;Samples;Min_cycle;Max_cycle;Signal;HPM_P1;HPM_P2
2022/04/29 00:01:27;;;;;;;9.75;6.40;;;;;;;3.01;95.85;96518.00;5069007;28;20041;-75
2022/04/29 00:03:53;;;;;;;11.30;6.20;;;;;;;2.98;95.73;96513.19;5065257;28;20094;-76
2022/04/29 00:06:20;;;;;;;9.73;6.40;;;;;;;3.01;95.38;96518.00;5050392;28;20037;-75
2022/04/29 00:08:46;;;;;;;12.30;6.75;;;;;;;3.01;95.37;96510.22;5054658;28;20483;-76
2022/04/29 00:11:11;;;;;;;12.82;6.47;;;;;;;2.98;95.67;96502.81;5073519;28;20116;-75
2022/04/29 00:13:37;;;;;;;11.27;6.90;;;;;;;2.98;96.60;96508.00;5063785;28;20047;-76
2022/04/29 00:16:03;;;;;;;11.88;6.60;;;;;;;2.86;96.48;96503.38;5065376;28;20044;-75
2022/04/29 00:18:29;;;;;;;12.40;6.93;;;;;;;2.81;96.63;96492.75;5077163;28;20115;-75
2022/04/29 00:20:55;;;;;;;10.48;6.82;;;;;;;2.84;97.24;96497.53;5080206;28;20264;-76
2022/04/29 00:23:21;;;;;;;11.18;6.60;;;;;;;2.84;96.43;96494.94;5064703;28;20051;-75
2022/04/29 00:25:46;;;;;;;9.90;6.15;;;;;;;2.82;96.00;96499.56;5049641;28;20766;-75
2022/04/29 00:28:12;;;;;;;9.88;6.25;;;;;;;2.75;96.28;96493.53;5059424;28;20098;-76
2022/04/29 00:30:37;;;;;;;11.20;6.35;;;;;;;2.71;96.63;96492.31;5069260;28;20045;-75
2022/04/29 00:33:03;;;;;;;11.07;6.38;;;;;;;2.71;96.60;96492.31;5064100;28;20055;-75
2022/04/29 00:35:28;;;;;;;10.27;6.10;;;;;;;2.68;96.91;96490.09;5063775;28;20119;-75
2022/04/29 00:37:56;;;;;;;9.75;6.18;;;;;;;2.58;96.82;96493.06;5049698;28;20048;-75
2022/04/29 00:40:29;;;;;;;9.77;6.07;;;;;;;2.52;97.52;96484.25;5048403;28;20518;-76
2022/04/29 00:42:56;;;;;;;9.87;6.30;;;;;;;2.56;98.04;96490.66;5051093;28;20086;-75
2022/04/29 00:45:23;;;;;;;9.38;6.38;;;;;;;2.51;97.21;96487.84;5048501;28;20294;-75
2022/04/29 00:47:49;;;;;;;11.52;6.07;;;;;;;2.50;97.79;96485.44;5068404;28;20048;-75
2022/04/29 00:50:18;;;;;;;11.10;6.80;;;;;;;2.42;97.45;96483.81;5064487;28;20051;-75
2022/04/29 00:52:47;;;;;;;11.68;6.47;;;;;;;2.33;98.28;96477.97;5066229;28;20098;-75
2022/04/29 00:55:14;;;;;;;9.77;6.50;;;;;;;2.41;99.49;96479.59;5066746;28;20064;-75
2022/04/29 00:57:53;;;;;;;10.77;6.10;;;;;;;2.38;98.69;96473.00;5056755;28;20045;-75
2022/04/29 01:00:19;;;;;;;11.35;6.63;;;;;;;2.32;98.25;96475.56;5054093;28;20029;-76
2022/04/29 01:02:51;;;;;;;10.75;6.53;;;;;;;2.36;98.14;96469.00;5066601;28;20037;-75
2022/04/29 01:05:25;;;;;;;11.23;6.85;;;;;;;2.38;97.97;96464.41;5068395;28;20056;-75
2022/04/29 01:07:51;;;;;;;11.55;6.80;;;;;;;2.29;98.13;96462.97;5064315;28;20045;-75
2022/04/29 01:10:20;;;;;;;12.65;6.80;;;;;;;2.24;98.71;96466.94;5065413;28;20048;-75
2022/04/29 01:12:56;;;;;;;11.75;6.43;;;;;;;2.18;99.17;96457.31;5060474;28;20124;-75
2022/04/29 01:15:22;;;;;;;10.15;6.05;;;;;;;2.22;98.70;96455.94;5058883;28;20048;-75
2022/04/29 01:17:52;;;;;;;10.73;6.85;;;;;;;2.14;98.00;96448.31;5063943;28;20045;-75
2022/04/29 01:20:23;;;;;;;10.10;6.40;;;;;;;2.05;99.30;96452.88;5069251;28;20040;-75
2022/04/29 01:22:49;;;;;;;11.93;6.30;;;;;;;2.06;99.16;96445.88;5068389;28;20040;-75
2022/04/29 01:25:14;;;;;;;10.85;6.57;;;;;;;1.99;100.00;96447.66;5067641;28;20043;-75
2022/04/29 01:27:40;;;;;;;11.40;6.70;;;;;;;2.02;99.99;96447.25;5053273;28;20533;-75
2022/04/29 01:30:15;;;;;;;11.07;6.43;;;;;;;2.06;99.00;96448.47;5052603;28;20058;-75
2022/04/29 01:32:41;;;;;;;11.48;6.80;;;;;;;2.00;99.62;96454.44;5077799;28;20036;-75
2022/04/29 01:35:11;;;;;;;10.75;6.82;;;;;;;2.04;100.00;96450.44;5066582;28;20044;-75
2022/04/29 01:37:37;;;;;;;13.93;6.60;;;;;;;2.05;99.06;96452.88;5063345;28;20506;-75
2022/04/29 01:40:04;;;;;;;12.20;6.97;;;;;;;1.89;100.00;96453.97;5067205;28;20128;-75
2022/04/29 01:42:30;;;;;;;10.70;6.85;;;;;;;1.86;100.00;96454.34;5053538;28;20052;-75
2022/04/29 01:44:56;;;;;;;14.63;7.80;;;;;;;1.95;100.00;96446.41;5065397;28;21701;-75
2022/04/29 01:47:22;;;;;;;9.98;6.70;;;;;;;1.98;100.00;96451.22;5055748;28;20477;-75
2022/04/29 01:49:48;;;;;;;14.73;7.00;;;;;;;1.93;99.49;96453.59;5064675;28;20040;-74
2022/04/29 01:52:14;;;;;;;11.43;6.38;;;;;;;1.82;99.60;96453.13;5068169;28;20139;-75
2022/04/29 01:54:39;;;;;;;10.75;6.80;;;;;;;1.73;100.00;96455.06;5067564;28;20414;-75
2022/04/29 01:57:06;;;;;;;12.43;6.97;;;;;;;1.77;100.00;96444.31;5067155;28;20044;-75
2022/04/29 01:59:32;;;;;;;11.05;6.45;;;;;;;1.79;100.00;96453.50;5061219;28;20045;-74
2022/04/29 02:01:59;;;;;;;10.35;6.32;;;;;;;1.76;100.00;96437.53;5070869;28;20462;-75
2022/04/29 02:04:25;;;;;;;12.00;6.75;;;;;;;1.71;100.00;96445.88;5068263;28;20379;-74
2022/04/29 02:06:50;;;;;;;12.15;6.63;;;;;;;1.70;99.41;96439.88;5067934;28;20044;-74
2022/04/29 02:09:16;;;;;;;11.45;6.93;;;;;;;1.62;100.00;96441.81;5070630;28;20055;-75
2022/04/29 02:12:04;;;;;;;10.50;6.75;;;;;;;1.56;100.00;96433.78;5075498;28;20044;-75
2022/04/29 02:14:30;;;;;;;13.48;7.38;;;;;;;1.47;100.00;96424.56;5059707;28;20430;-75
2022/04/29 02:16:57;;;;;;;14.73;7.45;;;;;;;1.42;100.00;96426.91;5067402;28;20045;-75
2022/04/29 02:19:24;;;;;;;11.35;7.10;;;;;;;1.47;100.00;96424.56;5078847;28;20578;-75
2022/04/29 02:21:50;;;;;;;11.82;7.28;;;;;;;1.37;100.00;96431.88;5088051;28;20067;-75
2022/04/29 02:24:16;;;;;;;10.85;6.75;;;;;;;1.35;100.00;96431.25;5074973;28;20045;-76
2022/04/29 02:26:41;;;;;;;12.70;7.45;;;;;;;1.34;100.00;96434.84;5070366;28;20396;-75
2022/04/29 02:29:07;;;;;;;12.25;7.00;;;;;;;1.34;100.00;96429.66;5064155;28;20076;-75
2022/04/29 02:31:33;;;;;;;10.80;7.18;;;;;;;1.23;100.00;96432.75;5069994;28;20518;-75
2022/04/29 02:33:59;;;;;;;14.60;7.28;;;;;;;1.25;100.00;96420.41;5067694;28;20052;-75
2022/04/29 02:36:25;;;;;;;11.95;6.93;;;;;;;1.31;100.00;96419.66;5066005;28;20616;-75
2022/04/29 02:38:50;;;;;;;11.77;7.32;;;;;;;1.28;100.00;96425.22;5070006;28;20047;-75
2022/04/29 02:41:16;;;;;;;12.43;7.28;;;;;;;1.23;100.00;96417.19;5054475;28;20048;-76
2022/04/29 02:43:42;;;;;;;14.10;6.82;;;;;;;1.17;100.00;96422.13;5064775;28;20115;-75
2022/04/29 02:46:08;;;;;;;13.32;7.13;;;;;;;1.17;100.00;96419.53;5078487;28;20041;-75
2022/04/29 02:48:33;;;;;;;11.27;6.93;;;;;;;1.11;100.00;96417.72;5067732;28;20063;-75
2022/04/29 02:50:59;;;;;;;12.77;7.50;;;;;;;1.06;100.00;96417.44;5070479;28;20128;-75
2022/04/29 02:53:25;;;;;;;13.68;7.13;;;;;;;1.08;100.00;96414.66;5065854;28;20041;-75
2022/04/29 02:55:50;;;;;;;12.70;6.78;;;;;;;1.08;100.00;96415.50;5057454;28;20037;-76
2022/04/29 02:58:16;;;;;;;11.57;6.95;;;;;;;1.12;100.00;96419.31;5050698;28;20045;-75
2022/04/29 03:00:41;;;;;;;14.48;7.15;;;;;;;1.02;100.00;96411.03;5081434;28;20040;-75
2022/04/29 03:03:07;;;;;;;13.80;6.82;;;;;;;1.00;100.00;96402.66;5073998;28;20041;-75
2022/04/29 03:05:33;;;;;;;12.98;7.07;;;;;;;0.90;100.00;96394.41;5064773;28;20050;-75
2022/04/29 03:07:59;;;;;;;11.02;6.90;;;;;;;0.88;100.00;96397.19;5053554;28;20041;-75
2022/04/29 03:10:25;;;;;;;12.25;7.13;;;;;;;0.87;100.00;96392.97;5068616;28;20525;-75
2022/04/29 03:12:51;;;;;;;12.02;7.13;;;;;;;0.74;100.00;96383.28;5069101;28;20506;-75
2022/04/29 03:15:18;;;;;;;11.27;7.13;;;;;;;0.78;100.00;96389.72;5063599;28;20041;-75
2022/04/29 03:20:36;;;;;;;12.48;7.03;;;;;;;0.76;100.00;96381.34;5068434;28;20044;-75
2022/04/29 03:23:03;;;;;;;16.58;7.20;;;;;;;0.67;100.00;96383.22;5071293;28;20049;-75
2022/04/29 03:25:28;;;;;;;13.73;7.03;;;;;;;0.63;100.00;96382.00;5068408;28;20498;-75
2022/04/29 03:27:54;;;;;;;12.18;6.97;;;;;;;0.68;100.00;96384.03;5078531;28;20142;-75
2022/04/29 03:30:19;;;;;;;12.60;7.10;;;;;;;0.74;100.00;96383.28;5069615;28;20402;-75
2022/04/29 03:32:57;;;;;;;15.48;7.32;;;;;;;0.66;100.00;96386.81;5071433;28;20486;-75
2022/04/29 03:35:23;;;;;;;11.95;7.55;;;;;;;0.60;100.00;96387.53;5054258;28;20052;-75
2022/04/29 03:37:52;;;;;;;11.02;6.93;;;;;;;0.48;100.00;96384.63;5059217;28;20384;-75
2022/04/29 03:40:21;;;;;;;12.27;7.18;;;;;;;0.66;100.00;96386.00;5065723;28;20052;-76
2022/04/29 03:42:51;;;;;;;11.50;7.55;;;;;;;0.54;100.00;96387.50;5056710;28;20495;-75
2022/04/29 03:45:17;;;;;;;15.77;8.45;;;;;;;0.43;100.00;96386.16;5060637;28;20110;-75
2022/04/29 03:47:43;;;;;;;12.18;7.43;;;;;;;0.39;100.00;96380.56;5075693;28;20079;-75
2022/04/29 03:50:10;;;;;;;12.20;7.38;;;;;;;0.46;100.00;96381.44;5058655;28;20041;-75
2022/04/29 03:52:50;;;;;;;13.73;7.32;;;;;;;0.48;100.00;96389.81;5076992;28;20048;-75
2022/04/29 03:55:19;;;;;;;11.75;7.25;;;;;;;0.48;100.00;96382.03;5064077;28;20041;-75
2022/04/29 03:57:45;;;;;;;13.80;7.80;;;;;;;0.45;100.00;96386.81;5066399;28;20120;-75
2022/04/29 04:00:11;;;;;;;15.45;8.02;;;;;;;0.48;100.00;96389.81;5064339;28;20108;-75
2022/04/29 04:02:37;;;;;;;12.38;7.07;;;;;;;0.50;100.00;96387.84;5064271;28;20617;-75
2022/04/29 04:05:03;;;;;;;12.70;7.55;;;;;;;0.50;100.00;96387.03;5061332;28;20028;-75
2022/04/29 04:07:28;;;;;;;11.98;7.22;;;;;;;0.36;100.00;96380.94;5062788;28;20045;-75
2022/04/29 04:09:54;;;;;;;12.57;7.25;;;;;;;0.46;100.00;96381.44;5069740;28;20044;-75
2022/04/29 04:12:20;;;;;;;11.93;7.03;;;;;;;0.41;100.00;96383.75;5067611;28;20044;-74
2022/04/29 04:14:45;;;;;;;11.68;6.90;;;;;;;0.41;100.00;96388.94;5059512;28;20120;-75
2022/04/29 04:17:11;;;;;;;11.77;7.03;;;;;;;0.46;100.00;96386.63;5066584;28;20071;-74
2022/04/29 04:19:37;;;;;;;14.30;7.65;;;;;;;0.44;100.00;96383.38;5067748;28;20047;-74
2022/04/29 04:22:03;;;;;;;12.98;7.55;;;;;;;0.34;100.00;96393.25;5069209;28;20070;-74
2022/04/29 04:24:29;;;;;;;13.13;7.25;;;;;;;0.21;100.00;96391.31;5062782;28;20445;-75
2022/04/29 04:26:55;;;;;;;11.48;7.22;;;;;;;0.23;100.00;96396.31;5064692;28;20045;-75
2022/04/29 04:29:21;;;;;;;12.18;7.85;;;;;;;0.32;100.00;96400.41;5048984;28;20843;-74
2022/04/29 04:31:47;;;;;;;17.15;8.10;;;;;;;0.39;100.00;96411.63;5053151;28;20052;-75
2022/04/29 04:36:58;;;;;;;13.57;7.90;;;;;;;0.44;100.00;96414.47;5068727;28;20048;-74
2022/04/29 04:39:24;;;;;;;13.05;8.20;;;;;;;0.39;100.00;96421.19;5061049;28;20044;-74
2022/04/29 04:41:50;;;;;;;12.63;7.70;;;;;;;0.45;100.00;96431.63;5069375;28;20115;-75
2022/04/29 04:44:17;;;;;;;19.88;9.38;;;;;;;0.51;100.00;96425.69;5066137;28;20037;-75
2022/04/29 04:46:42;;;;;;;13.98;8.05;;;;;;;0.62;100.00;96426.22;5056488;28;20032;-75
2022/04/29 04:49:10;;;;;;;13.60;7.70;;;;;;;0.77;100.00;96424.38;5064031;28;20548;-75
2022/04/29 04:51:36;;;;;;;17.55;8.88;;;;;;;0.73;100.00;96417.94;5058535;28;20044;-75
2022/04/29 04:54:01;;;;;;;14.90;8.30;;;;;;;0.74;100.00;96419.56;5067335;28;20044;-75
2022/04/29 04:56:27;;;;;;;17.92;9.05;;;;;;;0.76;100.00;96427.16;5067742;28;20040;-75
2022/04/29 04:58:53;;;;;;;22.05;9.48;;;;;;;0.89;100.00;96429.06;5060275;28;20037;-76
2022/04/29 05:01:18;;;;;;;17.48;9.60;;;;;;;1.08;100.00;96420.69;5076745;28;20071;-75
2022/04/29 05:03:44;;;;;;;16.85;9.20;;;;;;;1.28;100.00;96427.81;5067345;28;20036;-75
2022/04/29 05:06:09;;;;;;;15.93;9.27;;;;;;;1.44;100.00;96419.75;5055131;28;20040;-75
2022/04/29 05:08:35;;;;;;;16.90;9.95;;;;;;;1.65;100.00;96425.88;5056328;28;20040;-75
2022/04/29 05:11:00;;;;;;;19.92;9.95;;;;;;;1.85;100.00;96426.81;5062014;28;20391;-74
2022/04/29 05:13:27;;;;;;;17.10;10.07;;;;;;;2.10;100.00;96418.53;5060547;28;20061;-74
2022/04/29 05:15:52;;;;;;;21.10;9.98;;;;;;;2.09;100.00;96427.31;5062998;28;20099;-74
2022/04/29 05:18:18;;;;;;;22.77;10.57;;;;;;;2.10;100.00;96418.53;5076148;28;20116;-75
2022/04/29 05:20:43;;;;;;;23.65;11.52;;;;;;;2.09;100.00;96427.31;5072318;28;20076;-76
2022/04/29 05:23:09;;;;;;;20.27;11.25;;;;;;;2.13;100.00;96423.34;5067421;28;20434;-75
2022/04/29 05:25:35;;;;;;;23.90;11.77;;;;;;;2.20;100.00;96418.97;5064288;28;20067;-75
2022/04/29 05:28:02;;;;;;;21.98;11.38;;;;;;;2.25;100.00;96421.78;5054985;28;20041;-75
2022/04/29 05:30:30;;;;;;;24.85;12.55;;;;;;;2.31;100.00;96432.41;5051954;28;20037;-75
2022/04/29 05:32:56;;;;;;;24.58;12.55;;;;;;;2.34;100.00;96432.84;5073139;28;20123;-76
2022/04/29 05:35:23;;;;;;;24.05;12.77;;;;;;;2.43;100.00;96428.25;5068177;28;20044;-75
2022/04/29 05:37:49;;;;;;;38.08;13.05;;;;;;;2.55;100.00;96421.50;5069466;28;20517;-76
2022/04/29 05:42:59;;;;;;;30.73;14.68;;;;;;;2.74;100.00;96419.13;5073149;28;20044;-76
2022/04/29 05:45:25;;;;;;;28.27;14.43;;;;;;;2.82;100.00;96421.56;5059730;28;20037;-76
2022/04/29 05:47:50;;;;;;;28.42;14.98;;;;;;;3.12;100.00;96421.19;5065569;28;20048;-76
2022/04/29 05:50:16;;;;;;;32.08;15.45;;;;;;;3.47;100.00;96423.59;5071338;28;20422;-77
2022/04/29 05:52:42;;;;;;;27.50;13.75;;;;;;;3.63;100.00;96407.56;5056030;28;20055;-76
2022/04/29 05:55:08;;;;;;;26.00;12.27;;;;;;;4.03;97.32;96416.28;5064813;28;20422;-76
2022/04/29 05:57:33;;;;;;;24.27;12.25;;;;;;;4.45;93.11;96411.50;5068913;28;20040;-75
2022/04/29 05:59:59;;;;;;;21.80;11.98;;;;;;;4.60;93.17;96417.25;5068951;28;20052;-75
2022/04/29 06:02:28;;;;;;;22.23;10.90;;;;;;;4.78;91.70;96413.13;5084610;28;20041;-75
2022/04/29 06:04:53;;;;;;;20.73;9.68;;;;;;;4.89;91.31;96425.50;5062608;28;20040;-76
2022/04/29 06:07:19;;;;;;;18.52;9.50;;;;;;;4.95;92.98;96418.66;5065823;28;20041;-76
2022/04/29 06:09:44;;;;;;;16.08;8.63;;;;;;;5.12;92.34;96408.50;5069647;28;20115;-75
2022/04/29 06:12:10;;;;;;;15.40;8.43;;;;;;;5.06;91.59;96419.78;5071751;28;20041;-76
2022/04/29 06:14:36;;;;;;;13.20;7.65;;;;;;;4.87;94.33;96424.94;5070798;28;20055;-76
2022/04/29 06:17:02;;;;;;;14.25;7.68;;;;;;;4.96;92.71;96425.47;5061885;28;20040;-75
2022/04/29 06:19:28;;;;;;;13.80;7.32;;;;;;;5.12;92.23;96418.94;5063624;28;20036;-77
2022/04/29 06:21:54;;;;;;;11.50;7.30;;;;;;;5.65;89.46;96423.72;5069095;28;20067;-78
2022/04/29 06:24:19;;;;;;;14.13;7.53;;;;;;;5.95;86.72;96417.81;5080573;28;20433;-75
2022/04/29 06:26:45;;;;;;;12.15;7.47;;;;;;;6.23;85.02;96424.38;5064481;28;20103;-76
2022/04/29 06:29:11;;;;;;;13.85;7.47;;;;;;;6.15;87.14;96427.25;5070219;28;20067;-75
2022/04/29 06:31:36;;;;;;;11.32;7.07;;;;;;;6.26;87.15;96418.69;5082469;28;20079;-77
2022/04/29 06:34:02;;;;;;;11.68;6.82;;;;;;;6.49;84.88;96422.47;5068221;28;20083;-74
2022/04/29 06:36:28;;;;;;;11.65;7.13;;;;;;;6.85;83.56;96420.78;5063942;28;20037;-76
2022/04/29 06:38:53;;;;;;;15.98;7.63;;;;;;;7.00;81.56;96420.38;5065397;28;20476;-76
2022/04/29 06:41:19;;;;;;;13.43;7.80;;;;;;;7.14;81.33;96420.97;5089526;28;20044;-76
2022/04/29 06:43:45;;;;;;;12.68;7.60;;;;;;;7.01;83.83;96430.63;5063236;28;20037;-76
2022/04/29 06:46:10;;;;;;;12.48;7.90;;;;;;;7.15;81.53;96425.19;5067060;28;20044;-76
2022/04/29 06:48:36;;;;;;;13.52;7.50;;;;;;;7.45;82.87;96425.91;5064359;28;20768;-75
2022/04/29 06:51:02;;;;;;;14.35;7.97;;;;;;;7.95;78.59;96423.88;5063690;28;20498;-76
2022/04/29 06:53:27;;;;;;;17.38;8.40;;;;;;;8.10;76.84;96421.56;5071982;28;20560;-74
2022/04/29 06:55:54;;;;;;;14.23;7.60;;;;;;;8.20;75.97;96420.97;5070690;28;20044;-74
2022/04/29 06:58:19;;;;;;;16.13;8.85;;;;;;;7.90;80.14;96426.38;5061348;28;20545;-76
2022/04/29 07:00:45;;;;;;;16.67;10.02;;;;;;;7.84;79.29;96438.56;5067212;28;20067;-77
2022/04/29 07:03:11;;;;;;;15.48;8.73;;;;;;;7.68;81.49;96440.03;5064148;28;20048;-76
2022/04/29 07:05:38;;;;;;;15.25;9.07;;;;;;;7.62;82.00;96435.72;5067629;28;20041;-76
2022/04/29 07:08:04;;;;;;;17.33;8.77;;;;;;;7.78;81.47;96435.03;5060697;28;20044;-77
2022/04/29 07:10:30;;;;;;;15.32;8.75;;;;;;;7.74;81.86;96440.97;5060334;28;20116;-76
2022/04/29 07:12:56;;;;;;;14.48;8.65;;;;;;;7.77;81.36;96438.69;5072709;28;20045;-76
2022/04/29 07:15:21;;;;;;;14.77;8.35;;;;;;;8.17;79.35;96439.00;5069591;28;20039;-74
2022/04/29 07:17:47;;;;;;;14.20;6.70;;;;;;;8.96;73.15;96433.19;5070822;28;20089;-74
2022/04/29 07:20:14;;;;;;;12.07;7.05;;;;;;;8.78;76.49;96427.09;5063587;28;20055;-73
2022/04/29 07:22:41;;;;;;;16.45;7.13;;;;;;;8.56;76.65;96429.59;5067468;28;20036;-73
2022/04/29 07:25:08;;;;;;;11.43;7.28;;;;;;;8.52;76.77;96422.41;5070260;28;20052;-72
2022/04/29 07:27:34;;;;;;;10.52;6.50;;;;;;;8.48;76.03;96425.50;5068036;28;20524;-73
2022/04/29 07:30:01;;;;;;;11.43;6.53;;;;;;;8.53;75.00;96418.75;5068658;28;20041;-73
2022/04/29 07:32:27;;;;;;;10.35;6.10;;;;;;;9.31;68.98;96414.59;5073618;28;20047;-73
2022/04/29 07:43:06;;;;;;;10.98;6.47;;;;;;;10.03;62.13;96414.84;5073881;28;20045;-73
2022/04/29 07:45:32;;;;;;;9.30;5.68;;;;;;;9.77;64.24;96411.88;5055092;28;20033;-74
2022/04/29 07:48:00;;;;;;;10.05;5.72;;;;;;;9.80;63.48;96406.13;5082462;28;20094;-75
2022/04/29 07:50:29;;;;;;;12.13;6.18;;;;;;;10.16;60.77;96398.69;5075496;28;20049;-74
2022/04/29 07:52:56;;;;;;;11.23;5.97;;;;;;;10.08;61.55;96396.47;5064498;28;20045;-75
2022/04/29 07:55:22;;;;;;;12.43;5.97;;;;;;;10.23;59.63;96394.06;5069717;28;20113;-75
2022/04/29 07:57:48;;;;;;;11.95;6.30;;;;;;;10.75;57.87;96389.38;5065829;28;20490;-74
2022/04/29 08:00:14;;;;;;;8.93;5.72;;;;;;;10.59;56.63;96393.69;5067801;28;20094;-75
2022/04/29 08:02:40;;;;;;;9.45;5.72;;;;;;;10.49;55.56;96391.75;5080554;28;20036;-74
2022/04/29 08:05:06;;;;;;;13.93;5.75;;;;;;;10.83;55.01;96390.75;5076422;28;20429;-74
2022/04/29 08:07:33;;;;;;;9.25;5.53;;;;;;;11.11;54.20;96391.56;5069096;28;20048;-74
2022/04/29 08:09:59;;;;;;;12.88;5.93;;;;;;;11.32;52.04;96395.13;5068189;28;20094;-77
2022/04/29 08:12:26;;;;;;;10.70;5.78;;;;;;;11.68;50.77;96390.09;5066057;28;20045;-74
2022/04/29 08:14:53;;;;;;;14.68;5.90;;;;;;;11.93;49.63;96392.91;5076986;28;20506;-74
2022/04/29 08:17:23;;;;;;;8.93;6.15;;;;;;;12.11;49.54;96388.25;5067717;28;20029;-73
2022/04/29 08:19:49;;;;;;;11.50;5.35;;;;;;;12.04;51.19;96379.78;5066085;28;20036;-73
2022/04/29 08:22:15;;;;;;;9.32;5.18;;;;;;;11.75;50.74;96390.66;5069402;28;20036;-73
2022/04/29 08:24:42;;;;;;;8.77;5.43;;;;;;;11.69;49.12;96381.16;5066839;28;20134;-73
2022/04/29 08:27:07;;;;;;;9.65;5.72;;;;;;;11.94;49.29;96377.91;5061923;28;20045;-73
2022/04/29 08:29:33;;;;;;;8.45;4.90;;;;;;;11.74;49.72;96378.56;5058693;28;20240;-73
2022/04/29 08:31:59;;;;;;;12.00;5.47;;;;;;;11.86;51.08;96368.59;5058530;28;20068;-73
2022/04/29 08:34:25;;;;;;;11.20;5.82;;;;;;;12.07;46.87;96366.09;5053209;28;20068;-74
2022/04/29 08:36:51;;;;;;;8.55;4.90;;;;;;;12.27;49.89;96360.09;5052984;28;20044;-73
2022/04/29 08:39:17;;;;;;;8.50;4.85;;;;;;;12.61;46.99;96360.47;5049409;28;20041;-73
2022/04/29 08:41:43;;;;;;;9.55;4.97;;;;;;;12.62;45.17;96364.66;5078060;28;20037;-73
2022/04/29 08:44:13;;;;;;;10.82;5.10;;;;;;;12.72;45.71;96360.47;5064658;28;20104;-73
2022/04/29 08:46:40;;;;;;;11.40;4.95;;;;;;;12.67;45.92;96360.44;5062588;28;20059;-73
2022/04/29 08:49:07;;;;;;;15.88;5.70;;;;;;;12.57;45.48;96348.84;5068734;28;20060;-73
2022/04/29 08:51:34;;;;;;;8.68;5.07;;;;;;;12.40;45.87;96348.28;5065428;28;20045;-73
2022/04/29 08:54:04;;;;;;;8.57;5.22;;;;;;;12.70;45.65;96349.38;5064265;28;20041;-74
2022/04/29 08:59:18;;;;;;;11.38;5.32;;;;;;;12.93;44.74;96351.53;5049061;28;20037;-73
2022/04/29 09:01:44;;;;;;;11.10;4.85;;;;;;;12.93;47.90;96338.31;5064155;28;20115;-73
2022/04/29 09:04:10;;;;;;;10.27;4.47;;;;;;;12.96;45.55;96343.06;5071468;28;20072;-73
2022/04/29 09:06:48;;;;;;;10.20;5.18;;;;;;;13.01;43.60;96336.97;5059704;28;20039;-73
2022/04/29 09:09:18;;;;;;;12.23;4.72;;;;;;;12.91;44.84;96337.75;5056937;28;20068;-73
2022/04/29 09:11:44;;;;;;;9.77;4.72;;;;;;;12.94;43.85;96331.97;5069685;28;20049;-73
2022/04/29 09:14:20;;;;;;;11.80;5.28;;;;;;;12.98;43.95;96325.09;5052780;28;20045;-73
2022/04/29 09:16:46;;;;;;;9.85;4.50;;;;;;;13.29;43.53;96330.38;5066279;28;20041;-73
2022/04/29 09:19:34;;;;;;;9.60;4.85;;;;;;;13.36;43.88;96326.69;5068031;28;20049;-73
2022/04/29 09:22:04;;;;;;;6.85;4.72;;;;;;;13.45;43.99;96319.81;5059621;28;20045;-73
2022/04/29 09:24:30;;;;;;;8.35;4.80;;;;;;;13.53;42.93;96316.59;5052915;28;20041;-74
2022/04/29 09:27:03;;;;;;;10.52;4.88;;;;;;;14.09;41.08;96317.47;5070549;28;20536;-73
2022/04/29 09:29:29;;;;;;;7.97;4.50;;;;;;;14.34;41.15;96314.72;5069095;28;20040;-73
2022/04/29 09:32:00;;;;;;;10.32;4.72;;;;;;;14.53;42.25;96317.50;5069372;28;20591;-73
2022/04/29 09:34:46;;;;;;;7.43;4.82;;;;;;;14.53;40.57;96311.44;5064127;28;20048;-73
2022/04/29 09:37:23;;;;;;;7.47;4.57;;;;;;;14.68;38.90;96314.03;5069778;28;20048;-73
2022/04/29 09:39:52;;;;;;;9.57;4.90;;;;;;;14.70;41.38;96311.88;5069653;28;20036;-73
2022/04/29 09:42:18;;;;;;;7.90;4.70;;;;;;;14.45;42.49;96309.34;5054393;28;20045;-74
2022/04/29 09:44:45;;;;;;;8.50;5.47;;;;;;;14.34;42.74;96309.41;5060891;28;20044;-76
2022/04/29 09:47:21;;;;;;;8.43;5.15;;;;;;;14.06;43.58;96310.88;5067963;28;20040;-75
2022/04/29 09:49:59;;;;;;;11.18;5.15;;;;;;;14.07;44.27;96303.75;5067429;28;20040;-76
2022/04/29 09:52:30;;;;;;;7.90;4.90;;;;;;;14.60;42.10;96309.25;5059124;28;20048;-77
2022/04/29 09:55:18;;;;;;;7.82;5.15;;;;;;;14.77;42.11;96305.47;5059753;28;20571;-76
2022/04/29 09:57:59;;;;;;;9.18;5.40;;;;;;;15.06;42.46;96298.34;5059835;28;20069;-76
2022/04/29 10:00:25;;;;;;;10.23;4.95;;;;;;;15.13;44.02;96307.81;5063929;28;20109;-76
2022/04/29 10:02:51;;;;;;;11.93;5.32;;;;;;;14.77;43.19;96294.84;5071406;28;20060;-75
2022/04/29 10:05:17;;;;;;;10.90;5.15;;;;;;;15.11;42.25;96302.03;5060050;28;20068;-75
2022/04/29 10:07:43;;;;;;;10.45;5.20;;;;;;;15.27;42.25;96303.47;5066458;28;20520;-78
2022/04/29 10:10:09;;;;;;;7.43;4.90;;;;;;;15.67;40.46;96301.47;5068456;28;20460;-76
2022/04/29 10:12:35;;;;;;;7.32;4.32;;;;;;;15.88;39.27;96282.69;5068267;28;20062;-76
2022/04/29 10:15:06;;;;;;;6.22;4.22;;;;;;;16.23;38.58;96291.28;5068572;28;20048;-76
2022/04/29 10:23:10;;;;;;;6.22;4.20;;;;;;;16.50;37.46;96281.88;5058225;28;20039;-76
2022/04/29 10:25:39;;;;;;;9.32;4.75;;;;;;;17.24;36.19;96282.06;5065146;28;20028;-76
2022/04/29 10:28:07;;;;;;;8.45;4.50;;;;;;;17.59;35.42;96281.69;5069544;28;20040;-75
2022/04/29 10:30:34;;;;;;;9.95;4.55;;;;;;;17.74;34.66;96278.75;5068700;28;20628;-74
2022/04/29 10:33:22;;;;;;;8.70;3.95;;;;;;;18.05;37.31;96275.50;5067503;28;20045;-73
2022/04/29 10:35:50;;;;;;;8.10;4.40;;;;;;;18.50;33.94;96272.94;5070530;28;20105;-74
2022/04/29 10:38:22;;;;;;;5.55;4.13;;;;;;;18.74;32.45;96271.84;5066597;28;20048;-73
2022/04/29 10:41:07;;;;;;;7.60;4.85;;;;;;;18.76;31.93;96269.66;5050486;28;20072;-73
2022/04/29 10:43:51;;;;;;;9.95;4.07;;;;;;;18.90;30.68;96268.84;5051042;28;20037;-73
2022/04/29 10:46:23;;;;;;;7.13;4.28;;;;;;;19.04;30.91;96265.00;5063450;28;20040;-73
2022/04/29 10:48:53;;;;;;;8.93;4.18;;;;;;;19.05;34.12;96263.13;5065427;28;20045;-73
2022/04/29 10:51:46;;;;;;;8.77;3.88;;;;;;;19.42;30.65;96252.31;5067677;28;20040;-73
2022/04/29 10:54:12;;;;;;;7.25;4.38;;;;;;;19.43;31.90;96249.34;5063844;28;20434;-73
2022/04/29 10:56:38;;;;;;;7.70;3.95;;;;;;;19.62;32.17;96250.97;5066006;28;20087;-74
2022/04/29 10:59:04;;;;;;;10.32;4.28;;;;;;;20.06;30.77;96239.31;5058310;28;20064;-73
2022/04/29 11:01:34;;;;;;;8.20;4.63;;;;;;;19.75;31.86;96234.03;5068821;28;20500;-73
2022/04/29 11:04:15;;;;;;;8.15;4.25;;;;;;;19.71;33.01;96238.44;5069496;28;20063;-73
2022/04/29 11:06:49;;;;;;;6.40;4.47;;;;;;;19.45;32.70;96236.47;5062411;28;20064;-73
2022/04/29 11:09:28;;;;;;;8.48;4.00;;;;;;;19.34;32.48;96235.19;5067186;28;20044;-74
2022/04/29 11:11:58;;;;;;;8.10;4.03;;;;;;;18.56;31.81;96238.16;5072357;28;20048;-73
2022/04/29 11:14:24;;;;;;;5.82;3.95;;;;;;;18.61;31.70;96240.69;5067289;28;20040;-74
2022/04/29 11:16:57;;;;;;;7.30;3.70;;;;;;;19.78;31.02;96216.63;5066022;28;20043;-75
2022/04/29 11:19:26;;;;;;;7.57;4.10;;;;;;;19.20;31.59;96230.72;5083322;28;20129;-75
2022/04/29 11:24:46;;;;;;;12.90;4.22;;;;;;;19.27;29.68;96224.16;5068080;28;20098;-73
2022/04/29 11:27:12;;;;;;;6.70;4.00;;;;;;;19.15;29.89;96214.84;5071092;28;20044;-75
2022/04/29 11:29:46;;;;;;;6.20;3.78;;;;;;;19.84;29.25;96200.19;5068617;28;20452;-73
2022/04/29 11:32:12;;;;;;;6.28;3.85;;;;;;;21.02;30.62;96208.28;5070238;28;20071;-73
2022/04/29 11:34:55;;;;;;;6.03;3.70;;;;;;;21.68;29.46;96199.84;5061079;28;20040;-74
2022/04/29 11:37:29;;;;;;;5.63;3.83;;;;;;;21.91;27.82;96204.91;5060940;28;20052;-74
2022/04/29 11:39:55;;;;;;;7.72;3.90;;;;;;;21.58;27.57;96198.31;5070629;28;20505;-73
2022/04/29 11:42:22;;;;;;;5.85;3.53;;;;;;;22.21;25.72;96200.28;5070702;28;20063;-74
2022/04/29 11:44:51;;;;;;;7.68;3.80;;;;;;;21.91;26.65;96184.25;5068167;28;20102;-73
2022/04/29 11:47:22;;;;;;;4.57;3.15;;;;;;;22.07;27.28;96175.66;5060675;28;20090;-75
2022/04/29 11:49:48;;;;;;;6.60;3.13;;;;;;;22.35;27.22;96183.16;5069452;28;20037;-73
2022/04/29 11:52:20;;;;;;;5.65;3.25;;;;;;;22.48;25.24;96184.78;5065985;28;20718;-77
2022/04/29 11:54:53;;;;;;;5.53;3.17;;;;;;;22.08;27.12;96179.88;5058260;28;20045;-76
2022/04/29 11:57:19;;;;;;;6.57;3.60;;;;;;;21.57;26.59;96172.66;5054726;28;20041;-76
2022/04/29 11:59:46;;;;;;;5.55;3.15;;;;;;;20.72;28.46;96181.47;5062081;28;20068;-76